Time;durP1;ratioP1;P1;durP2;ratioP2;P2;SDS_P1;SDS_P2;PMS_P1;PMS_P2;Temp;Humidity;BMP_temperature;BMP_pressure;BME280_temperature;BME280_humidity;BME280_pressure;Samples;Min_cycle;Max_cycle;Signal;HPM_P1;HPM_P2
2021/05/20 00:00:09;;;;;;;4.70;2.20;;;;;;;14.56;80.11;94325.59;5066609;28;20123;-71
2021/05/20 00:02:37;;;;;;;10.80;3.15;;;;;;;14.58;80.41;94322.75;5065720;28;20063;-71
2021/05/20 00:05:08;;;;;;;7.32;2.70;;;;;;;14.51;80.45;94312.50;5066236;28;20040;-71
2021/05/20 00:07:35;;;;;;;6.00;2.35;;;;;;;14.55;80.20;94326.66;5066527;28;20457;-71
2021/05/20 00:10:05;;;;;;;8.02;2.33;;;;;;;14.43;80.12;94315.69;5067513;28;20036;-71
2021/05/20 00:12:32;;;;;;;9.73;2.75;;;;;;;14.40;81.09;94311.75;5067993;28;20040;-71
2021/05/20 00:14:59;;;;;;;7.97;2.58;;;;;;;14.37;81.33;94307.06;5065194;28;20036;-71
2021/05/20 00:17:26;;;;;;;7.38;2.65;;;;;;;14.20;81.96;94312.59;5068010;28;20048;-71
2021/05/20 00:19:53;;;;;;;6.43;2.63;;;;;;;14.10;82.68;94312.66;5067441;28;20044;-71
2021/05/20 00:22:20;;;;;;;7.00;2.60;;;;;;;13.91;84.11;94310.56;5066042;28;20135;-71
2021/05/20 00:24:48;;;;;;;7.18;2.78;;;;;;;13.95;84.64;94316.84;5067920;28;20510;-73
2021/05/20 00:27:14;;;;;;;6.50;2.28;;;;;;;13.73;85.10;94308.50;5066387;28;20036;-73
2021/05/20 00:29:42;;;;;;;11.93;2.42;;;;;;;13.74;86.55;94310.06;5047869;28;20040;-73
2021/05/20 00:32:08;;;;;;;12.23;2.53;;;;;;;13.73;86.58;94313.72;5064862;28;20501;-73
2021/05/20 00:34:35;;;;;;;6.63;2.45;;;;;;;13.61;87.17;94321.06;5066159;28;20036;-73
2021/05/20 00:37:02;;;;;;;8.35;2.15;;;;;;;13.49;89.23;94309.03;5065869;28;20042;-72
2021/05/20 00:39:29;;;;;;;12.15;2.47;;;;;;;13.50;90.61;94315.03;5067801;28;20049;-73
2021/05/20 00:41:56;;;;;;;5.63;2.65;;;;;;;13.33;91.69;94315.28;5065900;28;20051;-73
2021/05/20 00:44:23;;;;;;;8.70;2.25;;;;;;;13.23;92.35;94315.25;5065439;28;20048;-74
2021/05/20 00:46:49;;;;;;;6.05;2.90;;;;;;;13.24;93.22;94308.97;5067756;28;20571;-74
2021/05/20 00:49:16;;;;;;;9.93;2.50;;;;;;;13.23;94.01;94310.00;5067490;28;20071;-73
2021/05/20 00:51:45;;;;;;;10.07;2.45;;;;;;;13.14;94.28;94313.16;5067510;28;20056;-74
2021/05/20 00:54:12;;;;;;;9.98;2.70;;;;;;;13.04;95.32;94301.88;5066587;28;20039;-74
2021/05/20 00:56:40;;;;;;;8.93;3.10;;;;;;;13.07;96.88;94322.28;5066176;28;20072;-73
2021/05/20 00:59:07;;;;;;;8.23;2.83;;;;;;;12.99;96.70;94313.13;5067719;28;20056;-74
2021/05/20 01:01:34;;;;;;;5.47;2.65;;;;;;;12.94;96.84;94310.47;5068590;28;20048;-74
2021/05/20 01:04:01;;;;;;;6.80;3.20;;;;;;;13.04;96.74;94307.91;5065829;28;20033;-74
2021/05/20 01:06:28;;;;;;;10.48;3.63;;;;;;;13.11;96.67;94308.44;5067270;28;20468;-73
2021/05/20 01:08:57;;;;;;;5.47;3.08;;;;;;;13.11;96.67;94313.66;5067306;28;20059;-73
2021/05/20 01:11:24;;;;;;;5.60;3.33;;;;;;;13.04;97.06;94301.88;5064179;28;20051;-73
2021/05/20 01:13:51;;;;;;;8.50;2.75;;;;;;;13.14;97.40;94284.41;5067459;28;21323;-73
2021/05/20 01:16:18;;;;;;;10.98;3.47;;;;;;;13.14;97.07;94260.88;5064155;28;20054;-73
2021/05/20 01:18:45;;;;;;;7.20;3.40;;;;;;;13.23;97.72;94268.19;5064041;28;20045;-73
2021/05/20 01:21:12;;;;;;;8.32;3.63;;;;;;;13.27;97.43;94279.66;5062668;28;20036;-73
2021/05/20 01:23:38;;;;;;;7.72;2.80;;;;;;;13.28;97.32;94273.41;5065488;28;20112;-73
2021/05/20 01:26:05;;;;;;;10.70;2.97;;;;;;;13.15;97.23;94283.34;5068017;28;20044;-73
2021/05/20 01:28:33;;;;;;;8.05;2.97;;;;;;;12.92;97.66;94273.38;5065426;28;20048;-73
2021/05/20 01:31:01;;;;;;;11.82;2.72;;;;;;;12.91;97.71;94282.25;5064211;28;20036;-73
2021/05/20 01:33:29;;;;;;;12.20;2.97;;;;;;;12.75;97.12;94269.16;5064425;28;20049;-73
2021/05/20 01:35:55;;;;;;;11.10;2.92;;;;;;;12.72;97.87;94267.03;5066635;28;20036;-72
2021/05/20 01:41:08;;;;;;;8.05;2.83;;;;;;;12.77;98.48;94240.94;5065683;28;20597;-73
2021/05/20 01:43:35;;;;;;;11.88;3.70;;;;;;;12.76;98.46;94236.75;5067453;28;20040;-73
2021/05/20 01:46:04;;;;;;;10.73;3.60;;;;;;;12.73;98.65;94234.66;5065539;28;20032;-73
2021/05/20 01:48:39;;;;;;;9.30;2.90;;;;;;;12.73;98.62;94229.44;5067714;28;20041;-73
2021/05/20 01:51:09;;;;;;;15.30;3.35;;;;;;;12.72;98.71;94222.63;5046695;28;20044;-72
2021/05/20 01:53:38;;;;;;;12.55;3.58;;;;;;;12.74;98.05;94214.53;5064030;28;20048;-72
2021/05/20 01:56:06;;;;;;;12.85;3.83;;;;;;;12.58;98.95;94208.50;5065475;28;20095;-72
2021/05/20 01:58:34;;;;;;;11.48;3.10;;;;;;;12.50;99.63;94209.00;5046581;28;20052;-72
2021/05/20 02:01:01;;;;;;;7.00;3.33;;;;;;;12.37;99.24;94205.03;5064711;28;20044;-73
2021/05/20 02:03:30;;;;;;;8.90;4.10;;;;;;;12.49;99.19;94207.44;5067009;28;20395;-73
2021/05/20 02:05:57;;;;;;;14.30;3.92;;;;;;;12.48;100.00;94200.63;5049204;28;20087;-72
2021/05/20 02:08:25;;;;;;;11.00;3.63;;;;;;;12.51;100.00;94194.91;5063929;28;20056;-72
2021/05/20 02:10:52;;;;;;;7.63;3.53;;;;;;;12.53;100.00;94192.81;5063830;28;20494;-73
2021/05/20 02:13:19;;;;;;;9.98;3.70;;;;;;;12.54;100.00;94194.38;5046647;28;20047;-73
2021/05/20 02:15:47;;;;;;;7.55;3.38;;;;;;;12.51;100.00;94194.91;5066228;28;20074;-73
2021/05/20 02:18:14;;;;;;;12.50;3.90;;;;;;;12.40;100.00;94200.09;5063296;28;20044;-72
2021/05/20 02:20:41;;;;;;;12.80;4.43;;;;;;;12.38;100.00;94196.16;5064505;28;20045;-73
2021/05/20 02:23:08;;;;;;;10.27;4.45;;;;;;;12.43;100.00;94194.34;5063134;28;20469;-73
2021/05/20 02:25:34;;;;;;;8.65;3.90;;;;;;;12.51;100.00;94194.91;5064369;28;20045;-72
2021/05/20 02:28:02;;;;;;;5.90;3.90;;;;;;;12.48;100.00;94174.50;5064451;28;20040;-73
2021/05/20 02:30:29;;;;;;;14.10;4.05;;;;;;;12.62;100.00;94193.84;5064226;28;20068;-73
2021/05/20 02:32:56;;;;;;;10.10;3.70;;;;;;;12.67;100.00;94187.88;5064145;28;20049;-72
2021/05/20 02:35:23;;;;;;;8.70;4.30;;;;;;;12.65;100.00;94190.75;5064738;28;20112;-73
2021/05/20 02:37:51;;;;;;;12.77;3.65;;;;;;;12.61;100.00;94200.94;5064480;28;20036;-73
2021/05/20 02:40:18;;;;;;;9.00;4.35;;;;;;;12.60;100.00;94193.34;5066109;28;20048;-72
2021/05/20 02:42:45;;;;;;;9.38;4.63;;;;;;;12.50;100.00;94172.44;5047085;28;20162;-72
2021/05/20 02:45:15;;;;;;;11.68;4.35;;;;;;;12.47;100.00;94173.72;5062132;28;20059;-73
2021/05/20 02:47:42;;;;;;;9.25;4.38;;;;;;;12.44;100.00;94166.41;5064817;28;20041;-72
2021/05/20 02:50:10;;;;;;;13.88;5.10;;;;;;;12.43;100.00;94173.47;5066830;28;20169;-73
2021/05/20 02:52:37;;;;;;;11.25;4.78;;;;;;;12.46;100.00;94171.38;5069299;28;20040;-72
2021/05/20 02:55:06;;;;;;;10.23;3.90;;;;;;;12.48;100.00;94169.28;5067655;28;20417;-73
2021/05/20 02:57:35;;;;;;;13.18;5.40;;;;;;;12.37;100.00;94168.47;5051545;28;20139;-72
2021/05/20 03:00:04;;;;;;;8.45;4.65;;;;;;;12.24;100.00;94175.78;5065161;28;20044;-73
2021/05/20 03:02:30;;;;;;;12.30;5.75;;;;;;;12.14;100.00;94180.19;5065534;28;20047;-73
2021/05/20 03:04:57;;;;;;;10.48;5.53;;;;;;;12.09;100.00;94172.34;5068045;28;20024;-72
2021/05/20 03:07:24;;;;;;;14.93;4.93;;;;;;;12.09;100.00;94177.56;5069021;28;20062;-73
2021/05/20 03:09:51;;;;;;;15.63;5.30;;;;;;;12.12;100.00;94182.25;5066189;28;20032;-72
2021/05/20 03:12:18;;;;;;;10.00;5.13;;;;;;;11.95;100.00;94188.44;5067324;28;20047;-73
2021/05/20 03:14:45;;;;;;;12.20;5.28;;;;;;;11.92;100.00;94183.75;5066855;28;20036;-73
2021/05/20 03:17:12;;;;;;;8.20;4.82;;;;;;;11.70;100.00;94170.03;5068111;28;20051;-72
2021/05/20 03:19:39;;;;;;;8.52;5.93;;;;;;;11.74;100.00;94174.50;5050913;28;20047;-72
2021/05/20 03:22:07;;;;;;;11.55;6.75;;;;;;;11.84;100.00;94181.59;5054067;28;20410;-72
2021/05/20 03:24:35;;;;;;;13.73;6.80;;;;;;;11.87;100.00;94186.31;5063903;28;20036;-72
2021/05/20 03:27:02;;;;;;;10.80;6.28;;;;;;;11.83;100.00;94177.41;5065139;28;20048;-72
2021/05/20 03:29:29;;;;;;;9.85;5.25;;;;;;;11.89;100.00;94194.66;5066674;28;20544;-73
2021/05/20 03:31:56;;;;;;;11.95;6.40;;;;;;;11.83;100.00;94193.06;5065174;28;20048;-73
2021/05/20 03:34:23;;;;;;;12.68;5.72;;;;;;;11.89;100.00;94215.53;5069148;28;20041;-73
2021/05/20 03:36:50;;;;;;;9.70;5.78;;;;;;;11.92;100.00;94215.06;5069068;28;20036;-73
2021/05/20 03:39:16;;;;;;;12.60;4.95;;;;;;;11.90;100.00;94222.34;5070894;28;20565;-75
2021/05/20 03:41:43;;;;;;;10.55;4.90;;;;;;;11.96;100.00;94231.78;5053764;28;20044;-76
2021/05/20 03:44:10;;;;;;;8.18;4.40;;;;;;;11.86;100.00;94248.13;5071932;28;20072;-76
2021/05/20 03:46:37;;;;;;;9.30;4.35;;;;;;;11.71;100.00;94244.66;5067332;28;20044;-74
2021/05/20 03:49:04;;;;;;;7.53;3.60;;;;;;;11.78;100.00;94256.44;5065814;28;20043;-74
2021/05/20 03:51:34;;;;;;;8.43;4.82;;;;;;;11.68;100.00;94251.16;5052535;28;20126;-73
2021/05/20 03:54:02;;;;;;;11.63;6.50;;;;;;;11.75;100.00;94282.25;5069685;28;20500;-74
2021/05/20 03:56:29;;;;;;;11.18;7.70;;;;;;;11.64;100.00;94276.94;5072002;28;20119;-73
2021/05/20 03:58:55;;;;;;;14.73;8.55;;;;;;;11.60;100.00;94270.66;5072716;28;20589;-75
2021/05/20 04:01:22;;;;;;;13.65;8.85;;;;;;;11.63;100.00;94283.22;5065823;28;20123;-75
2021/05/20 04:03:49;;;;;;;16.95;10.27;;;;;;;11.62;100.00;94305.13;5068269;28;20047;-79
2021/05/20 04:06:16;;;;;;;23.50;10.48;;;;;;;11.52;100.00;94299.81;5076967;28;20524;-80
2021/05/20 04:08:43;;;;;;;16.55;8.90;;;;;;;11.59;100.00;94315.25;5075485;28;20039;-81
2021/05/20 04:11:09;;;;;;;13.95;9.07;;;;;;;11.51;100.00;94311.28;5063380;28;20046;-85
2021/05/20 04:13:38;;;;;;;16.23;9.57;;;;;;;11.29;100.00;94304.34;5071747;28;20066;-79
2021/05/20 04:16:07;;;;;;;19.30;10.50;;;;;;;11.26;100.00;94317.06;5074874;28;20054;-78
2021/05/20 04:18:34;;;;;;;16.95;10.40;;;;;;;11.26;100.00;94302.22;5080417;28;20039;-81
2021/05/20 04:21:02;;;;;;;15.65;9.30;;;;;;;11.40;100.00;94312.25;5073578;28;20056;-82
2021/05/20 04:23:29;;;;;;;13.30;9.07;;;;;;;11.37;100.00;94307.53;5056176;28;20064;-84
2021/05/20 04:26:02;;;;;;;20.65;10.15;;;;;;;11.28;100.00;94299.38;5079579;28;20673;-85
2021/05/20 04:28:29;;;;;;;20.27;10.18;;;;;;;11.38;100.00;94314.28;5078364;28;20036;-85
2021/05/20 04:30:56;;;;;;;17.10;10.88;;;;;;;11.35;100.00;94299.16;5074170;28;20518;-83
2021/05/20 04:33:23;;;;;;;14.90;9.43;;;;;;;11.37;100.00;94307.53;5079259;28;20071;-82
2021/05/20 04:35:49;;;;;;;15.90;9.18;;;;;;;11.32;100.00;94295.22;5076223;28;20123;-79
2021/05/20 04:38:16;;;;;;;20.05;10.63;;;;;;;11.25;100.00;94290.22;5069032;28;20047;-80
2021/05/20 04:40:43;;;;;;;13.02;9.65;;;;;;;11.38;100.00;94309.09;5068932;28;20163;-79
2021/05/20 04:43:10;;;;;;;12.88;9.73;;;;;;;11.39;100.00;94301.00;5077251;28;20111;-79
2021/05/20 04:45:38;;;;;;;11.15;8.43;;;;;;;11.47;100.00;94299.78;5071188;28;20041;-78
2021/05/20 04:48:05;;;;;;;15.73;7.97;;;;;;;11.61;100.00;94293.13;5072340;28;20050;-78
2021/05/20 04:50:32;;;;;;;11.93;6.88;;;;;;;11.58;100.00;94293.63;5081058;28;20039;-78
2021/05/20 04:52:59;;;;;;;8.88;6.55;;;;;;;11.71;100.00;94296.84;5078634;28;20098;-77
2021/05/20 04:55:26;;;;;;;9.52;5.35;;;;;;;11.84;100.00;94291.16;5081251;28;20036;-77
2021/05/20 04:57:53;;;;;;;9.68;5.25;;;;;;;11.86;100.00;94294.31;5059344;28;20136;-77
2021/05/20 05:00:20;;;;;;;8.90;4.55;;;;;;;11.72;100.00;94303.59;5073408;28;20043;-76
2021/05/20 05:02:49;;;;;;;6.70;4.38;;;;;;;11.71;100.00;94291.63;5075862;28;20049;-76
2021/05/20 05:05:16;;;;;;;8.07;3.60;;;;;;;11.69;100.00;94293.69;5076131;28;20119;-76
2021/05/20 05:07:44;;;;;;;5.22;3.97;;;;;;;11.84;100.00;94301.59;5073533;28;20115;-76
2021/05/20 05:10:11;;;;;;;9.52;4.90;;;;;;;11.79;100.00;94299.75;5073127;28;20406;-75
2021/05/20 05:12:39;;;;;;;9.73;5.38;;;;;;;11.86;100.00;94299.53;5069555;28;20033;-75
2021/05/20 05:15:07;;;;;;;10.07;6.95;;;;;;;11.88;100.00;94301.88;5076761;28;20032;-74
2021/05/20 05:17:34;;;;;;;9.15;4.63;;;;;;;11.89;100.00;94309.47;5074740;28;20581;-75
2021/05/20 05:20:01;;;;;;;6.15;4.57;;;;;;;11.89;100.00;94309.47;5069037;28;20123;-74
2021/05/20 05:22:27;;;;;;;7.60;4.20;;;;;;;11.86;100.00;94309.97;5077010;28;20040;-74
2021/05/20 05:24:55;;;;;;;11.93;5.97;;;;;;;11.92;100.00;94293.34;5069277;28;20460;-74
2021/05/20 05:27:23;;;;;;;6.53;5.45;;;;;;;12.02;100.00;94298.59;5051363;28;20117;-75
2021/05/20 05:29:51;;;;;;;6.80;5.13;;;;;;;11.92;100.00;94288.13;5071574;28;20041;-74
2021/05/20 05:32:18;;;;;;;6.30;5.10;;;;;;;11.89;100.00;94278.16;5070481;28;20036;-74
2021/05/20 05:34:45;;;;;;;8.95;5.43;;;;;;;12.05;100.00;94297.34;5071600;28;20048;-74
2021/05/20 05:37:12;;;;;;;11.00;6.07;;;;;;;12.08;100.00;94278.53;5073422;28;20048;-74
2021/05/20 05:39:39;;;;;;;5.72;4.75;;;;;;;11.92;100.00;94250.78;5066792;28;20798;-74
2021/05/20 05:42:06;;;;;;;5.82;4.63;;;;;;;12.05;100.00;94266.78;5072002;28;20047;-74
2021/05/20 05:44:32;;;;;;;7.72;4.43;;;;;;;12.26;100.00;94272.09;5066660;28;20047;-73
2021/05/20 05:46:59;;;;;;;7.57;5.40;;;;;;;12.29;100.00;94297.72;5079487;28;20127;-73
2021/05/20 05:49:29;;;;;;;6.80;5.30;;;;;;;12.18;100.00;94288.25;5069696;28;20050;-73
2021/05/20 05:52:04;;;;;;;7.13;3.90;;;;;;;12.22;100.00;94297.16;5064526;28;20051;-73
2021/05/20 05:54:30;;;;;;;4.18;3.78;;;;;;;12.03;100.00;94297.59;5072901;28;20032;-73
2021/05/20 05:56:57;;;;;;;7.22;4.47;;;;;;;11.88;100.00;94294.84;5066777;28;20131;-73
2021/05/20 05:59:24;;;;;;;3.80;3.40;;;;;;;12.02;100.00;94309.06;5052712;28;20044;-73
2021/05/20 06:01:51;;;;;;;4.43;3.10;;;;;;;11.90;100.00;94305.84;5069663;28;20064;-73
2021/05/20 06:04:18;;;;;;;5.43;2.70;;;;;;;11.88;100.00;94313.09;5053933;28;22003;-73
2021/05/20 06:06:46;;;;;;;4.50;3.30;;;;;;;11.89;100.00;94325.13;5064950;28;20044;-73
2021/05/20 06:09:13;;;;;;;3.28;2.70;;;;;;;11.83;100.00;94319.09;5066320;28;20127;-73
2021/05/20 06:11:43;;;;;;;5.75;2.92;;;;;;;11.80;100.00;94350.13;5065270;28;20044;-73
2021/05/20 06:14:10;;;;;;;6.13;3.15;;;;;;;11.82;100.00;94355.88;5061461;28;20055;-72
2021/05/20 06:16:40;;;;;;;5.60;3.13;;;;;;;11.68;100.00;94355.50;5071383;28;20562;-72
2021/05/20 06:19:13;;;;;;;2.63;1.48;;;;;;;11.69;100.00;94377.16;5069643;28;20033;-73
2021/05/20 06:21:40;;;;;;;2.25;2.00;;;;;;;11.40;100.00;94359.19;5064640;28;20506;-72
2021/05/20 06:24:08;;;;;;;2.00;1.60;;;;;;;11.46;100.00;94381.66;5067771;28;20131;-72
2021/05/20 06:26:35;;;;;;;1.45;1.00;;;;;;;11.32;100.00;94388.28;5069200;28;20043;-72
2021/05/20 06:29:02;;;;;;;0.70;0.52;;;;;;;11.04;99.01;94387.50;5068368;28;20040;-73
2021/05/20 06:31:29;;;;;;;1.25;0.77;;;;;;;10.67;99.23;94357.63;5055701;28;20048;-72
2021/05/20 06:33:56;;;;;;;1.00;0.70;;;;;;;10.63;100.00;94376.59;5069274;28;20044;-72
2021/05/20 06:36:24;;;;;;;2.50;1.02;;;;;;;10.51;100.00;94385.31;5071615;28;20076;-72
2021/05/20 06:38:52;;;;;;;1.00;0.90;;;;;;;10.54;100.00;94389.25;5056756;28;20132;-72
2021/05/20 06:41:22;;;;;;;1.63;0.60;;;;;;;10.52;100.00;94375.69;5075744;28;20049;-73
2021/05/20 06:43:49;;;;;;;2.85;0.77;;;;;;;10.54;100.00;94388.47;5079421;28;20116;-74
2021/05/20 06:46:17;;;;;;;1.00;0.88;;;;;;;10.47;100.00;94389.41;5081444;28;20503;-74
2021/05/20 06:48:44;;;;;;;0.88;0.60;;;;;;;10.56;100.00;94396.81;5074404;28;20123;-74
2021/05/20 06:51:10;;;;;;;1.27;0.77;;;;;;;10.48;100.00;94411.81;5057066;28;20128;-74
2021/05/20 06:53:38;;;;;;;1.17;0.68;;;;;;;10.61;100.00;94404.69;5072973;28;20133;-74
2021/05/20 06:56:09;;;;;;;0.60;0.55;;;;;;;10.76;100.00;94407.47;5077363;28;21738;-75
2021/05/20 07:01:21;;;;;;;1.70;0.60;;;;;;;10.75;100.00;94400.72;5055610;28;20391;-74
2021/05/20 07:03:48;;;;;;;1.30;0.40;;;;;;;10.82;98.67;94406.53;5072518;28;20048;-73
2021/05/20 07:06:14;;;;;;;1.77;0.65;;;;;;;10.95;99.51;94397.56;5071594;28;20505;-74
2021/05/20 07:08:41;;;;;;;1.42;1.00;;;;;;;11.14;100.00;94390.19;5078058;28;20050;-73
2021/05/20 07:11:08;;;;;;;1.75;0.80;;;;;;;10.99;98.81;94390.03;5072759;28;20074;-73
2021/05/20 07:13:35;;;;;;;5.22;1.23;;;;;;;11.11;100.00;94393.31;5054858;28;20040;-73
2021/05/20 07:16:03;;;;;;;3.65;1.67;;;;;;;11.17;98.44;94413.16;5069788;28;20040;-74
2021/05/20 07:18:30;;;;;;;1.48;0.90;;;;;;;11.21;98.88;94403.81;5068626;28;20048;-74
2021/05/20 07:20:58;;;;;;;0.88;0.85;;;;;;;11.08;95.71;94393.78;5069996;28;20037;-73
2021/05/20 07:23:25;;;;;;;1.98;1.33;;;;;;;11.16;95.88;94406.38;5054279;28;20044;-73
2021/05/20 07:25:52;;;;;;;3.28;1.38;;;;;;;11.22;95.12;94394.97;5065097;28;20050;-72
2021/05/20 07:28:22;;;;;;;1.77;0.85;;;;;;;11.14;93.92;94390.19;5067260;28;20559;-72
2021/05/20 07:30:49;;;;;;;2.70;1.30;;;;;;;11.21;94.18;94396.00;5066118;28;20044;-72
2021/05/20 07:33:15;;;;;;;1.73;1.10;;;;;;;11.33;95.36;94401.09;5057008;28;20128;-72
2021/05/20 07:35:42;;;;;;;1.70;0.93;;;;;;;11.62;96.35;94399.00;5061145;28;20044;-72
2021/05/20 07:38:09;;;;;;;2.28;1.17;;;;;;;11.80;95.34;94395.25;5046827;28;20045;-71
2021/05/20 07:40:36;;;;;;;1.63;1.02;;;;;;;11.69;93.24;94382.38;5055552;28;20036;-72
2021/05/20 07:43:03;;;;;;;1.08;0.93;;;;;;;11.83;92.11;94388.75;5056370;28;20045;-71
2021/05/20 07:45:30;;;;;;;1.58;1.20;;;;;;;12.12;93.00;94396.28;5055385;28;20044;-71
2021/05/20 07:47:57;;;;;;;2.38;0.90;;;;;;;12.33;92.21;94387.53;5068890;28;20044;-72
2021/05/20 07:50:23;;;;;;;1.92;0.90;;;;;;;12.53;90.78;94401.75;5068843;28;20060;-72
2021/05/20 07:52:50;;;;;;;1.00;0.88;;;;;;;12.53;89.30;94407.00;5067874;28;20111;-72
2021/05/20 07:55:17;;;;;;;1.23;0.82;;;;;;;12.51;88.59;94414.28;5067808;28;20043;-71
2021/05/20 07:57:45;;;;;;;0.73;0.63;;;;;;;12.57;86.64;94423.75;5052063;28;20589;-72
2021/05/20 08:00:13;;;;;;;0.98;0.70;;;;;;;12.49;85.80;94427.59;5064566;28;20072;-72
2021/05/20 08:02:57;;;;;;;2.90;0.70;;;;;;;12.47;87.51;94434.13;5065986;28;20605;-72
2021/05/20 08:08:05;;;;;;;1.25;0.63;;;;;;;12.34;88.69;94433.53;5066498;28;20473;-72
2021/05/20 08:13:15;;;;;;;3.13;1.00;;;;;;;12.23;85.95;94455.38;5068331;28;20064;-72
2021/05/20 08:15:42;;;;;;;0.73;0.60;;;;;;;12.19;87.70;94456.91;5050483;28;20043;-72
2021/05/20 08:18:09;;;;;;;1.38;1.27;;;;;;;12.37;88.97;94472.19;5065543;28;20055;-72
2021/05/20 08:20:36;;;;;;;3.25;0.98;;;;;;;12.79;88.99;94479.25;5064754;28;20179;-73
2021/05/20 08:23:03;;;;;;;0.75;0.57;;;;;;;13.03;85.24;94478.84;5063000;28;20513;-72
2021/05/20 08:25:30;;;;;;;1.60;1.15;;;;;;;12.89;83.92;94477.72;5043950;28;20040;-71
2021/05/20 08:27:57;;;;;;;1.38;0.90;;;;;;;12.97;82.69;94493.72;5062099;28;20054;-73
2021/05/20 08:30:25;;;;;;;0.88;0.80;;;;;;;13.09;80.40;94482.28;5045334;28;20045;-72
2021/05/20 08:32:52;;;;;;;3.47;0.82;;;;;;;13.32;81.45;94491.56;5066999;28;20035;-71
2021/05/20 08:35:19;;;;;;;4.32;1.15;;;;;;;13.33;80.12;94482.69;5069983;28;20029;-71
2021/05/20 08:37:45;;;;;;;5.97;3.45;;;;;;;13.43;75.67;94493.16;5069559;28;20064;-71
2021/05/20 08:40:13;;;;;;;2.78;1.15;;;;;;;13.48;74.91;94490.56;5068070;28;20037;-71
2021/05/20 08:42:41;;;;;;;2.38;1.20;;;;;;;13.57;73.69;94481.16;5066786;28;20054;-71
2021/05/20 08:45:14;;;;;;;1.35;0.60;;;;;;;13.79;73.69;94485.41;5067269;28;20037;-72
2021/05/20 08:47:43;;;;;;;0.43;0.30;;;;;;;13.92;73.34;94497.22;5066979;28;20058;-72
2021/05/20 08:50:11;;;;;;;2.75;0.55;;;;;;;14.11;71.96;94487.03;5067723;28;20079;-71
2021/05/20 08:52:39;;;;;;;3.47;0.50;;;;;;;14.25;71.64;94485.47;5067396;28;20051;-71
2021/05/20 08:55:09;;;;;;;5.32;4.53;;;;;;;14.36;68.47;94482.84;5068287;28;20046;-71
2021/05/20 08:57:36;;;;;;;2.63;0.40;;;;;;;14.43;67.76;94504.34;5064563;28;20049;-71
2021/05/20 09:00:06;;;;;;;1.17;0.55;;;;;;;14.50;69.83;94516.13;5065248;28;20048;-71
2021/05/20 09:02:32;;;;;;;2.55;0.43;;;;;;;14.45;66.40;94491.75;5067603;28;20067;-71
2021/05/20 09:05:16;;;;;;;2.30;0.35;;;;;;;14.52;65.56;94518.47;5066762;28;20037;-71
2021/05/20 09:07:48;;;;;;;2.83;1.70;;;;;;;14.65;68.51;94515.34;5064093;28;20110;-71
2021/05/20 09:10:20;;;;;;;2.60;1.48;;;;;;;14.47;68.15;94515.84;5068397;28;20172;-71
2021/05/20 09:12:49;;;;;;;3.60;1.95;;;;;;;14.64;70.17;94505.91;5066311;28;20051;-71
2021/05/20 09:15:22;;;;;;;4.88;1.60;;;;;;;14.72;68.97;94502.75;5065200;28;20036;-71
2021/05/20 09:17:50;;;;;;;1.40;1.13;;;;;;;14.89;67.02;94512.16;5064391;28;20442;-71
2021/05/20 09:20:18;;;;;;;2.28;1.25;;;;;;;15.05;66.67;94495.38;5064592;28;20755;-71
2021/05/20 09:22:48;;;;;;;1.42;0.73;;;;;;;15.26;65.73;94503.16;5066921;28;20052;-71
2021/05/20 09:25:15;;;;;;;1.35;0.93;;;;;;;15.31;62.54;94502.38;5065317;28;20557;-71
2021/05/20 09:27:46;;;;;;;2.75;1.67;;;;;;;15.19;62.56;94500.03;5064087;28;20119;-71
2021/05/20 09:30:20;;;;;;;2.47;1.10;;;;;;;15.34;62.87;94513.13;5065678;28;20472;-72
2021/05/20 09:32:55;;;;;;;3.63;1.10;;;;;;;15.59;64.76;94503.53;5059530;28;20156;-71
2021/05/20 09:35:28;;;;;;;3.50;1.73;;;;;;;15.72;62.29;94487.22;5045079;28;20045;-72
2021/05/20 09:38:01;;;;;;;5.18;2.58;;;;;;;16.12;62.88;94484.63;5064222;28;20126;-71
2021/05/20 09:40:40;;;;;;;3.05;1.10;;;;;;;16.36;59.46;94471.56;5060378;28;20122;-71
2021/05/20 09:43:33;;;;;;;2.63;1.08;;;;;;;16.28;60.34;94477.41;5065074;28;20059;-72
2021/05/20 09:46:09;;;;;;;2.47;0.57;;;;;;;16.19;62.86;94479.84;5062997;28;20063;-71
2021/05/20 09:48:39;;;;;;;0.85;0.80;;;;;;;16.29;59.26;94484.25;5065050;28;20063;-71
2021/05/20 09:51:19;;;;;;;1.40;1.10;;;;;;;16.40;60.61;94480.47;5046336;28;20033;-71
2021/05/20 09:53:51;;;;;;;1.45;1.15;;;;;;;16.38;58.47;94482.59;5059208;28;20052;-72
2021/05/20 09:56:38;;;;;;;1.90;1.10;;;;;;;16.54;58.64;94473.50;5062159;28;20047;-71
2021/05/20 09:59:05;;;;;;;8.73;3.47;;;;;;;16.93;58.77;94477.91;5059770;28;20828;-71
2021/05/20 10:01:34;;;;;;;2.75;1.58;;;;;;;17.34;57.85;94469.56;5064613;28;20094;-71
2021/05/20 10:04:01;;;;;;;1.20;0.73;;;;;;;17.32;56.93;94474.31;5059884;28;20484;-72
2021/05/20 10:06:42;;;;;;;2.80;0.70;;;;;;;17.07;55.14;94479.84;5067679;28;20029;-72
2021/05/20 10:09:13;;;;;;;2.90;0.65;;;;;;;17.12;57.08;94466.66;5061930;28;20083;-72
2021/05/20 10:11:44;;;;;;;0.95;0.50;;;;;;;17.44;56.56;94465.22;5059713;28;20141;-72
2021/05/20 10:14:11;;;;;;;1.48;0.50;;;;;;;17.55;55.42;94472.69;5044192;28;20425;-72
2021/05/20 10:16:39;;;;;;;1.20;0.63;;;;;;;17.75;54.57;94461.13;5064129;28;20068;-72
2021/05/20 10:19:07;;;;;;;1.70;0.60;;;;;;;17.85;51.72;94485.78;5062823;28;20057;-73
2021/05/20 10:21:34;;;;;;;23.25;8.82;;;;;;;17.53;54.67;94479.31;5060842;28;20048;-72
2021/05/20 10:24:04;;;;;;;5.38;2.80;;;;;;;17.65;55.56;94466.53;5059630;28;20056;-72
2021/05/20 10:26:38;;;;;;;1.70;0.98;;;;;;;17.85;54.30;94469.97;5059904;28;20045;-72
2021/05/20 10:29:08;;;;;;;1.13;0.70;;;;;;;18.04;51.95;94462.88;5064375;28;20056;-72
2021/05/20 10:31:40;;;;;;;1.38;0.82;;;;;;;18.59;50.68;94461.47;5062908;28;20037;-72
2021/05/20 10:34:07;;;;;;;26.63;9.48;;;;;;;18.98;51.44;94450.50;5060671;28;20056;-72
2021/05/20 10:36:34;;;;;;;3.55;1.48;;;;;;;18.98;48.00;94458.44;5060142;28;20044;-72
2021/05/20 10:39:21;;;;;;;5.80;1.08;;;;;;;18.86;48.38;94461.53;5061261;28;20053;-72
2021/05/20 10:41:49;;;;;;;2.80;2.05;;;;;;;18.89;49.73;94466.22;5062314;28;20514;-72
2021/05/20 10:44:17;;;;;;;3.08;1.27;;;;;;;18.41;48.66;94471.78;5059301;28;20112;-72
2021/05/20 10:46:56;;;;;;;3.88;2.40;;;;;;;18.07;52.08;94469.41;5055763;28;20051;-72
2021/05/20 10:49:54;;;;;;;5.45;3.50;;;;;;;18.00;55.05;94461.06;5058025;28;20049;-72
2021/05/20 10:52:39;;;;;;;5.10;2.38;;;;;;;18.89;52.66;94466.22;5059516;28;20040;-72
2021/05/20 10:55:14;;;;;;;3.75;1.90;;;;;;;19.15;45.82;94460.47;5060305;28;20051;-71
2021/05/20 10:57:59;;;;;;;10.57;4.82;;;;;;;19.21;46.13;94459.31;5063341;28;20043;-73
2021/05/20 11:00:42;;;;;;;4.20;2.00;;;;;;;19.48;47.46;94449.78;5058204;28;20060;-71
2021/05/20 11:03:10;;;;;;;10.10;5.10;;;;;;;19.68;47.19;94430.88;5060573;28;20702;-71
2021/05/20 11:05:43;;;;;;;6.80;4.13;;;;;;;20.10;47.07;94443.19;5054272;28;20157;-72
2021/05/20 11:08:30;;;;;;;3.50;2.33;;;;;;;19.98;46.78;94431.28;5059339;28;20083;-72
2021/05/20 11:11:00;;;;;;;6.03;2.95;;;;;;;20.39;46.36;94440.91;5061463;28;20147;-72
2021/05/20 11:13:44;;;;;;;5.30;2.65;;;;;;;20.24;43.95;94433.34;5065947;28;20053;-73
2021/05/20 11:16:43;;;;;;;2.63;2.05;;;;;;;19.77;45.95;94440.75;5063622;28;20024;-72
2021/05/20 11:19:20;;;;;;;4.55;2.22;;;;;;;20.05;45.20;94429.00;5032083;28;20127;-72
2021/05/20 11:21:59;;;;;;;4.60;2.38;;;;;;;20.57;43.34;94438.34;5057790;28;20531;-72
2021/05/20 11:24:27;;;;;;;5.25;2.58;;;;;;;20.27;44.10;94422.16;5061583;28;20060;-72
2021/05/20 11:26:56;;;;;;;2.78;1.80;;;;;;;20.90;44.44;94409.72;5058896;28;20414;-72
2021/05/20 11:29:27;;;;;;;2.03;1.30;;;;;;;21.28;42.67;94426.97;5045905;28;20049;-72
2021/05/20 11:32:14;;;;;;;1.98;1.77;;;;;;;21.42;40.05;94411.72;5061144;28;20053;-72
2021/05/20 11:37:38;;;;;;;4.18;3.17;;;;;;;21.24;40.65;94433.97;5062784;28;20039;-72
2021/05/20 11:40:25;;;;;;;2.97;1.95;;;;;;;21.15;38.96;94429.44;5065500;28;20079;-71
2021/05/20 11:42:52;;;;;;;1.50;1.23;;;;;;;20.73;38.18;94423.69;5065770;28;20028;-71
2021/05/20 11:45:26;;;;;;;1.25;1.10;;;;;;;21.21;37.89;94406.22;5063029;28;20052;-71
2021/05/20 11:47:55;;;;;;;3.25;1.38;;;;;;;20.75;36.65;94416.22;5061075;28;20079;-72